createdAt,value
2018-02-15T00:01:15.673Z,9.97
2018-02-15T00:03:43.633Z,11.43
2018-02-15T00:06:11.170Z,13.20
2018-02-15T00:08:38.724Z,11.40
2018-02-15T00:11:06.266Z,9.80
2018-02-15T00:13:33.753Z,10.10
2018-02-15T00:16:01.293Z,9.57
2018-02-15T00:18:28.854Z,12.27
2018-02-15T00:20:56.359Z,7.73
2018-02-15T00:23:23.871Z,5.47
2018-02-15T00:25:51.432Z,5.83
2018-02-15T00:28:18.922Z,7.23
2018-02-15T00:30:46.815Z,5.37
2018-02-15T00:33:14.404Z,5.57
2018-02-15T00:35:41.930Z,5.87
2018-02-15T00:38:09.402Z,5.50
2018-02-15T00:40:36.962Z,5.73
2018-02-15T00:43:04.482Z,7.90
2018-02-15T00:45:32.004Z,6.43
2018-02-15T00:47:59.523Z,10.83
2018-02-15T00:50:27.025Z,9.10
2018-02-15T00:52:54.644Z,5.57
2018-02-15T00:55:22.253Z,10.77
2018-02-15T00:57:50.138Z,6.37
2018-02-15T01:00:17.662Z,5.97
2018-02-15T01:02:45.226Z,8.73
2018-02-15T01:05:13.267Z,11.20
2018-02-15T01:07:40.779Z,9.10
2018-02-15T01:10:08.312Z,7.73
2018-02-15T01:12:35.826Z,7.23
2018-02-15T01:15:03.355Z,8.53
2018-02-15T01:17:30.882Z,6.23
2018-02-15T01:19:58.390Z,9.10
2018-02-15T01:22:25.942Z,6.27
2018-02-15T01:24:53.504Z,8.57
2018-02-15T01:27:21.014Z,9.07
2018-02-15T01:29:48.537Z,7.90
2018-02-15T01:32:16.134Z,6.80
2018-02-15T01:34:44.031Z,5.50
2018-02-15T01:37:11.552Z,5.37
2018-02-15T01:39:39.090Z,6.30
2018-02-15T01:42:06.684Z,6.20
2018-02-15T01:44:34.274Z,6.00
2018-02-15T01:47:01.897Z,6.40
2018-02-15T01:49:30.803Z,6.27
2018-02-15T01:51:58.389Z,6.57
2018-02-15T01:54:25.907Z,5.87
2018-02-15T01:56:53.842Z,5.83
2018-02-15T01:59:21.376Z,8.43
2018-02-15T02:01:48.881Z,7.37
2018-02-15T02:04:16.871Z,6.20
2018-02-15T02:06:45.310Z,8.63
2018-02-15T02:09:12.815Z,8.07
2018-02-15T02:11:40.375Z,9.97
2018-02-15T02:14:07.866Z,9.97
2018-02-15T02:16:35.394Z,9.87
2018-02-15T02:19:02.944Z,8.60
2018-02-15T02:21:30.583Z,10.53
2018-02-15T02:23:58.030Z,7.93
2018-02-15T02:26:25.578Z,7.43
2018-02-15T02:28:53.150Z,7.83
2018-02-15T02:31:21.097Z,8.63
2018-02-15T02:33:48.657Z,8.23
2018-02-15T02:36:16.160Z,8.83
2018-02-15T02:38:43.719Z,8.00
2018-02-15T02:41:11.316Z,8.43
2018-02-15T02:43:38.843Z,7.47
2018-02-15T02:46:06.399Z,8.90
2018-02-15T02:48:34.018Z,7.97
2018-02-15T02:51:01.990Z,8.33
2018-02-15T02:53:29.949Z,12.73
2018-02-15T02:55:57.453Z,12.43
2018-02-15T02:58:25.014Z,9.47
2018-02-15T03:00:52.539Z,8.63
2018-02-15T03:03:20.449Z,10.80
2018-02-15T03:05:48.031Z,7.67
2018-02-15T03:08:15.632Z,8.37
2018-02-15T03:10:43.214Z,9.23
2018-02-15T03:13:10.737Z,8.00
2018-02-15T03:15:38.631Z,8.43
2018-02-15T03:18:06.167Z,8.87
2018-02-15T03:20:33.706Z,9.13
2018-02-15T03:23:01.224Z,7.83
2018-02-15T03:25:28.751Z,10.43
2018-02-15T03:27:56.304Z,7.83
2018-02-15T03:30:24.211Z,8.93
2018-02-15T03:32:51.719Z,8.13
2018-02-15T03:35:19.242Z,12.27
2018-02-15T03:37:46.786Z,8.63
2018-02-15T03:40:14.284Z,11.40
2018-02-15T03:42:42.167Z,8.90
2018-02-15T03:45:09.719Z,9.87
2018-02-15T03:47:37.240Z,11.43
2018-02-15T03:50:04.802Z,11.87
2018-02-15T03:52:32.281Z,9.10
2018-02-15T03:55:00.175Z,9.03
2018-02-15T03:57:27.718Z,8.90
2018-02-15T03:59:55.263Z,9.80
2018-02-15T04:02:23.161Z,8.07
2018-02-15T04:04:50.676Z,8.77
2018-02-15T04:07:18.190Z,7.73
2018-02-15T04:09:45.709Z,7.60
2018-02-15T04:12:13.590Z,7.37
2018-02-15T04:14:41.098Z,6.80
2018-02-15T04:17:08.593Z,9.63
2018-02-15T04:19:36.174Z,8.93
2018-02-15T04:22:03.681Z,11.80
2018-02-15T04:24:31.175Z,7.60
2018-02-15T04:26:58.732Z,7.43
2018-02-15T04:29:26.211Z,7.60
2018-02-15T04:31:53.702Z,7.47
2018-02-15T04:34:21.190Z,7.33
2018-02-15T04:36:49.102Z,7.17
2018-02-15T04:39:16.597Z,11.53
2018-02-15T04:41:44.107Z,9.93
2018-02-15T04:44:11.625Z,7.50
2018-02-15T04:46:39.498Z,7.90
2018-02-15T04:49:06.999Z,7.77
2018-02-15T04:51:34.531Z,9.37
2018-02-15T04:54:02.040Z,9.33
2018-02-15T04:56:29.633Z,9.10
2018-02-15T04:58:57.177Z,8.83
2018-02-15T05:01:25.106Z,9.90
2018-02-15T05:03:52.619Z,9.17
2018-02-15T05:06:20.098Z,8.43
2018-02-15T05:08:47.617Z,7.87
2018-02-15T05:11:17.270Z,9.83
2018-02-15T05:13:44.818Z,8.00
2018-02-15T05:16:12.383Z,7.27
2018-02-15T05:18:39.934Z,8.43
2018-02-15T05:21:07.453Z,7.13
2018-02-15T05:23:35.363Z,6.47
2018-02-15T05:26:02.880Z,8.37
2018-02-15T05:28:30.750Z,5.93
2018-02-15T05:30:58.662Z,6.40
2018-02-15T05:33:26.140Z,5.77
2018-02-15T05:35:53.628Z,9.33
2018-02-15T05:38:21.161Z,5.97
2018-02-15T05:40:48.621Z,6.50
2018-02-15T05:43:16.141Z,6.07
2018-02-15T05:45:43.688Z,6.30
2018-02-15T05:48:11.301Z,7.60
2018-02-15T05:50:38.846Z,5.80
2018-02-15T05:53:06.389Z,5.70
2018-02-15T05:55:33.951Z,11.40
2018-02-15T05:58:01.480Z,5.67
2018-02-15T06:00:29.079Z,12.43
2018-02-15T06:02:57.001Z,8.57
2018-02-15T06:05:25.302Z,6.17
2018-02-15T06:07:52.896Z,6.20
2018-02-15T06:10:21.058Z,5.30
2018-02-15T06:12:48.540Z,5.00
2018-02-15T06:15:16.438Z,7.00
2018-02-15T06:17:43.955Z,7.83
2018-02-15T06:20:11.414Z,6.77
2018-02-15T06:22:39.362Z,7.03
2018-02-15T06:25:06.868Z,8.37
2018-02-15T06:27:34.365Z,8.07
2018-02-15T06:30:01.848Z,6.73
2018-02-15T06:32:29.757Z,10.77
2018-02-15T06:34:57.220Z,7.13
2018-02-15T06:37:24.729Z,8.93
2018-02-15T06:39:52.280Z,11.23
2018-02-15T06:42:20.196Z,6.03
2018-02-15T06:44:48.222Z,6.93
2018-02-15T06:47:16.212Z,8.27
2018-02-15T06:49:44.483Z,5.60
2018-02-15T06:52:12.873Z,4.80
2018-02-15T06:54:42.301Z,5.63
2018-02-15T06:57:11.034Z,4.13
2018-02-15T06:59:39.739Z,4.47
2018-02-15T07:02:11.994Z,4.27
2018-02-15T07:04:40.527Z,9.00
2018-02-15T07:07:09.167Z,4.57
2018-02-15T07:09:40.554Z,7.63
2018-02-15T07:12:09.901Z,4.10
2018-02-15T07:14:38.209Z,4.10
2018-02-15T07:17:07.541Z,5.90
2018-02-15T07:19:36.272Z,4.07
2018-02-15T07:22:05.513Z,4.40
2018-02-15T07:24:33.693Z,3.97
2018-02-15T07:27:05.620Z,3.93
2018-02-15T07:29:34.008Z,4.67
2018-02-15T07:32:01.908Z,5.73
2018-02-15T07:34:37.433Z,3.97
2018-02-15T07:37:05.600Z,4.47
2018-02-15T07:39:33.351Z,7.67
2018-02-15T07:42:02.141Z,4.97
2018-02-15T07:44:29.702Z,6.33
2018-02-15T07:46:57.356Z,7.50
2018-02-15T07:49:30.150Z,5.87
2018-02-15T07:51:59.914Z,6.57
2018-02-15T07:54:28.770Z,6.13
2018-02-15T07:56:57.670Z,6.27
2018-02-15T07:59:25.415Z,6.03
2018-02-15T08:01:54.090Z,5.20
2018-02-15T08:04:21.602Z,8.33
2018-02-15T08:06:49.190Z,6.53
2018-02-15T08:09:16.757Z,6.40
2018-02-15T08:11:44.314Z,6.80
2018-02-15T08:14:11.876Z,5.60
2018-02-15T08:16:39.720Z,7.77
2018-02-15T08:19:07.363Z,6.17
2018-02-15T08:21:34.909Z,7.70
2018-02-15T08:24:02.440Z,6.70
2018-02-15T08:26:30.015Z,5.73
2018-02-15T08:28:57.913Z,6.17
2018-02-15T08:31:25.631Z,6.63
2018-02-15T08:33:53.154Z,6.50
2018-02-15T08:36:20.736Z,6.90
2018-02-15T08:38:49.495Z,5.97
2018-02-15T08:41:18.795Z,6.40
2018-02-15T08:43:52.903Z,5.77
2018-02-15T08:46:21.536Z,6.13
2018-02-15T08:48:51.976Z,6.37
2018-02-15T08:51:21.595Z,7.67
2018-02-15T08:53:49.847Z,6.60
2018-02-15T08:56:18.258Z,7.20
2018-02-15T08:58:50.711Z,9.70
2018-02-15T09:01:19.445Z,6.90
2018-02-15T09:03:50.295Z,6.93
2018-02-15T09:06:19.753Z,12.93
2018-02-15T09:08:50.049Z,9.00
2018-02-15T09:11:19.233Z,10.57
2018-02-15T09:13:48.596Z,9.40
2018-02-15T09:16:16.636Z,14.70
2018-02-15T09:18:44.348Z,9.93
2018-02-15T09:21:13.441Z,16.40
2018-02-15T09:23:41.018Z,8.33
2018-02-15T09:26:09.066Z,9.37
2018-02-15T09:28:38.678Z,17.33
2018-02-15T09:31:06.685Z,9.40
2018-02-15T09:33:35.716Z,6.90
2018-02-15T09:36:04.457Z,9.07
2018-02-15T09:38:32.003Z,11.27
2018-02-15T09:40:59.915Z,6.33
2018-02-15T09:43:27.493Z,6.37
2018-02-15T09:45:55.752Z,6.40
2018-02-15T09:48:23.345Z,7.43
2018-02-15T09:50:50.901Z,7.90
2018-02-15T09:53:18.457Z,7.37
2018-02-15T09:55:45.972Z,6.60
2018-02-15T09:58:13.617Z,7.53
2018-02-15T10:00:41.172Z,9.20
2018-02-15T10:03:09.072Z,6.97
2018-02-15T10:05:36.663Z,7.40
2018-02-15T10:08:04.449Z,12.73
2018-02-15T10:10:32.010Z,7.53
2018-02-15T10:12:59.595Z,6.20
2018-02-15T10:15:27.151Z,5.70
2018-02-15T10:17:54.609Z,6.70
2018-02-15T10:20:22.269Z,5.93
2018-02-15T10:22:49.854Z,6.33
2018-02-15T10:25:17.366Z,11.03
2018-02-15T10:27:45.259Z,5.63
2018-02-15T10:30:12.802Z,8.07
2018-02-15T10:32:40.312Z,9.93
2018-02-15T10:35:07.814Z,8.20
2018-02-15T10:37:35.536Z,7.57
2018-02-15T10:40:03.114Z,7.83
2018-02-15T10:42:31.057Z,9.33
2018-02-15T10:44:58.822Z,11.20
2018-02-15T10:47:26.407Z,8.63
2018-02-15T10:49:54.004Z,9.80
2018-02-15T10:52:21.601Z,15.23
2018-02-15T10:54:49.223Z,10.60
2018-02-15T10:57:16.830Z,9.67
2018-02-15T10:59:44.329Z,8.33
2018-02-15T11:02:17.406Z,8.50
2018-02-15T11:04:50.863Z,9.13
2018-02-15T11:07:18.450Z,8.37
2018-02-15T11:09:47.364Z,8.83
2018-02-15T11:12:16.285Z,9.33
2018-02-15T11:14:43.830Z,10.90
2018-02-15T11:17:11.812Z,12.97
2018-02-15T11:19:39.458Z,14.97
2018-02-15T11:22:07.616Z,9.80
2018-02-15T11:24:36.057Z,10.90
2018-02-15T11:27:04.360Z,17.03
2018-02-15T11:29:34.469Z,13.77
2018-02-15T11:32:02.486Z,11.50
2018-02-15T11:34:30.243Z,11.90
2018-02-15T11:36:59.177Z,18.80
2018-02-15T11:39:27.621Z,13.30
2018-02-15T11:41:55.338Z,12.00
2018-02-15T11:44:24.428Z,14.63
2018-02-15T11:46:52.492Z,12.37
2018-02-15T11:49:20.469Z,18.23
2018-02-15T11:51:47.940Z,14.23
2018-02-15T11:54:15.437Z,12.40
2018-02-15T11:56:42.998Z,11.73
2018-02-15T11:59:10.501Z,12.20
2018-02-15T12:01:38.031Z,12.47
2018-02-15T12:04:05.550Z,14.20
2018-02-15T12:06:33.061Z,12.67
2018-02-15T12:09:00.965Z,15.23
2018-02-15T12:11:28.497Z,14.10
2018-02-15T12:13:55.994Z,16.17
2018-02-15T12:16:23.482Z,16.43
2018-02-15T12:18:51.063Z,12.93
2018-02-15T12:21:18.630Z,15.17
2018-02-15T12:23:46.511Z,15.37
2018-02-15T12:26:14.085Z,18.90
2018-02-15T12:28:41.650Z,21.97
2018-02-15T12:31:09.174Z,15.73
2018-02-15T12:33:36.749Z,16.93
2018-02-15T12:36:04.246Z,16.23
2018-02-15T12:38:31.822Z,12.70
2018-02-15T12:40:59.710Z,12.13
2018-02-15T12:43:27.224Z,14.07
2018-02-15T12:45:54.774Z,14.90
2018-02-15T12:48:22.346Z,14.57
2018-02-15T12:50:49.881Z,14.80
2018-02-15T12:53:17.489Z,13.80
2018-02-15T12:55:45.402Z,17.73
2018-02-15T12:58:12.986Z,13.30
2018-02-15T13:00:40.542Z,15.03
2018-02-15T13:03:08.107Z,12.07
2018-02-15T13:05:36.193Z,14.20
2018-02-15T13:08:04.123Z,13.67
2018-02-15T13:10:31.634Z,15.97
2018-02-15T13:13:10.914Z,17.70
2018-02-15T13:15:50.208Z,19.63
2018-02-15T13:18:17.772Z,16.93
2018-02-15T13:20:45.282Z,19.90
2018-02-15T13:23:12.754Z,20.93
2018-02-15T13:25:40.703Z,19.27
2018-02-15T13:28:20.025Z,21.73
2018-02-15T13:30:47.546Z,22.47
2018-02-15T13:33:15.090Z,26.60
2018-02-15T13:35:42.596Z,18.47
2018-02-15T13:38:10.066Z,16.20
2018-02-15T13:40:37.590Z,22.00
2018-02-15T13:43:05.202Z,18.30
2018-02-15T13:45:33.184Z,15.93
2018-02-15T13:48:00.744Z,13.23
2018-02-15T13:50:28.690Z,16.10
2018-02-15T13:52:56.206Z,14.30
2018-02-15T13:55:23.758Z,19.37
2018-02-15T13:57:51.316Z,17.43
2018-02-15T14:00:18.799Z,14.77
2018-02-15T14:02:46.456Z,15.77
2018-02-15T14:05:13.958Z,14.73
2018-02-15T14:07:41.515Z,16.17
2018-02-15T14:10:09.985Z,16.57
2018-02-15T14:12:37.889Z,16.17
2018-02-15T14:15:05.417Z,16.03
2018-02-15T14:17:33.012Z,19.63
2018-02-15T14:20:00.523Z,16.33
2018-02-15T14:22:28.495Z,17.00
2018-02-15T14:24:56.485Z,16.10
2018-02-15T14:27:24.043Z,14.47
2018-02-15T14:29:51.597Z,15.47
2018-02-15T14:32:19.163Z,18.63
2018-02-15T14:34:46.691Z,14.47
2018-02-15T14:37:14.634Z,16.33
2018-02-15T14:39:42.230Z,16.37
2018-02-15T14:42:09.834Z,15.67
2018-02-15T14:44:38.843Z,16.73
2018-02-15T14:47:06.433Z,15.07
2018-02-15T14:49:34.397Z,15.43
2018-02-15T14:52:01.870Z,18.10
2018-02-15T14:54:29.401Z,16.60
2018-02-15T14:56:56.910Z,14.63
2018-02-15T14:59:24.410Z,16.40
2018-02-15T15:01:51.904Z,17.90
2018-02-15T15:04:19.449Z,20.30
2018-02-15T15:06:46.982Z,17.17
2018-02-15T15:09:15.223Z,22.03
2018-02-15T15:11:42.714Z,27.20
2018-02-15T15:14:10.251Z,16.23
2018-02-15T15:16:37.735Z,21.00
2018-02-15T15:19:05.239Z,17.93
2018-02-15T15:21:32.788Z,18.90
2018-02-15T15:24:00.322Z,16.93
2018-02-15T15:26:28.250Z,21.27
2018-02-15T15:28:55.742Z,21.60
2018-02-15T15:31:23.707Z,20.70
2018-02-15T15:33:51.688Z,16.70
2018-02-15T15:36:19.629Z,19.87
2018-02-15T15:38:47.182Z,19.40
2018-02-15T15:41:14.777Z,19.73
2018-02-15T15:43:42.375Z,20.27
2018-02-15T15:46:09.850Z,25.07
2018-02-15T15:48:37.363Z,23.47
2018-02-15T15:51:06.913Z,18.53
2018-02-15T15:53:34.467Z,19.97
2018-02-15T15:56:01.960Z,20.43
2018-02-15T15:58:29.459Z,17.67
2018-02-15T16:00:56.955Z,21.97
2018-02-15T16:03:24.902Z,20.53
2018-02-15T16:05:52.419Z,22.77
2018-02-15T16:08:19.910Z,19.53
2018-02-15T16:10:47.475Z,19.27
2018-02-15T16:13:15.923Z,19.20
2018-02-15T16:15:43.462Z,22.93
2018-02-15T16:18:11.122Z,23.83
2018-02-15T16:20:38.705Z,25.53
2018-02-15T16:23:06.236Z,22.03
2018-02-15T16:25:33.806Z,22.57
2018-02-15T16:28:01.364Z,21.43
2018-02-15T16:30:28.943Z,26.50
2018-02-15T16:32:56.541Z,29.57
2018-02-15T16:35:24.499Z,31.13
2018-02-15T16:37:52.086Z,34.63
2018-02-15T16:40:19.710Z,26.20
2018-02-15T16:42:47.299Z,26.13
2018-02-15T16:45:15.346Z,25.53
2018-02-15T16:47:42.942Z,26.40
2018-02-15T16:50:10.502Z,25.27
2018-02-15T16:52:37.995Z,28.63
2018-02-15T16:55:05.597Z,26.20
2018-02-15T16:57:33.541Z,26.40
2018-02-15T17:00:01.070Z,23.73
2018-02-15T17:02:28.698Z,25.77
2018-02-15T17:04:56.288Z,24.30
2018-02-15T17:07:23.932Z,25.43
2018-02-15T17:09:51.449Z,27.77
2018-02-15T17:12:22.074Z,28.10
2018-02-15T17:14:49.696Z,25.93
2018-02-15T17:17:17.463Z,33.47
2018-02-15T17:19:45.110Z,33.27
2018-02-15T17:22:20.472Z,31.27
2018-02-15T17:24:48.126Z,32.40
2018-02-15T17:27:16.612Z,32.67
2018-02-15T17:29:44.179Z,36.03
2018-02-15T17:32:11.782Z,26.83
2018-02-15T17:34:39.322Z,30.57
2018-02-15T17:37:06.947Z,30.87
2018-02-15T17:39:34.526Z,28.77
2018-02-15T17:42:02.039Z,30.50
2018-02-15T17:44:29.627Z,30.13
2018-02-15T17:46:57.127Z,30.60
2018-02-15T17:49:24.634Z,28.00
2018-02-15T17:51:52.204Z,26.33
2018-02-15T17:54:19.849Z,33.03
2018-02-15T17:56:47.583Z,28.50
2018-02-15T17:59:15.187Z,31.87
2018-02-15T18:01:42.757Z,29.30
2018-02-15T18:04:10.278Z,28.97
2018-02-15T18:06:37.940Z,33.30
2018-02-15T18:09:05.486Z,34.50
2018-02-15T18:11:33.011Z,37.27
2018-02-15T18:14:01.006Z,30.53
2018-02-15T18:16:28.622Z,35.63
2018-02-15T18:18:56.174Z,33.83
2018-02-15T18:21:23.786Z,40.03
2018-02-15T18:23:51.289Z,37.67
2018-02-15T18:26:18.922Z,34.87
2018-02-15T18:28:46.491Z,40.67
2018-02-15T18:31:14.049Z,40.07
2018-02-15T18:33:41.582Z,39.40
2018-02-15T18:36:09.268Z,38.47
2018-02-15T18:38:36.911Z,38.23
2018-02-15T18:41:04.535Z,39.33
2018-02-15T18:43:32.543Z,41.40
2018-02-15T18:46:00.177Z,38.60
2018-02-15T18:48:27.749Z,39.03
2018-02-15T18:50:55.443Z,42.17
2018-02-15T18:53:23.085Z,41.23
2018-02-15T18:55:50.662Z,41.83
2018-02-15T18:58:18.869Z,44.40
2018-02-15T19:00:46.933Z,41.87
2018-02-15T19:03:14.954Z,40.10
2018-02-15T19:05:42.531Z,39.43
2018-02-15T19:08:11.285Z,42.23
2018-02-15T19:10:40.726Z,50.77
2018-02-15T19:13:09.103Z,45.43
2018-02-15T19:15:39.242Z,49.93
2018-02-15T19:18:08.231Z,47.03
2018-02-15T19:20:35.817Z,51.50
2018-02-15T19:23:03.423Z,45.07
2018-02-15T19:25:31.893Z,50.63
2018-02-15T19:27:59.536Z,47.90
2018-02-15T19:30:27.532Z,49.03
2018-02-15T19:32:55.145Z,45.10
2018-02-15T19:35:22.732Z,57.40
2018-02-15T19:37:50.301Z,56.97
2018-02-15T19:40:18.171Z,57.30
2018-02-15T19:42:47.001Z,50.60
2018-02-15T19:45:14.990Z,58.03
2018-02-15T19:47:42.563Z,56.17
2018-02-15T19:50:10.059Z,56.53
2018-02-15T19:52:37.605Z,57.10
2018-02-15T19:55:05.141Z,52.87
2018-02-15T19:57:32.675Z,51.47
2018-02-15T20:00:01.266Z,54.57
2018-02-15T20:02:28.870Z,49.67
2018-02-15T20:04:56.354Z,49.27
2018-02-15T20:07:23.888Z,49.17
2018-02-15T20:09:51.496Z,46.27
2018-02-15T20:12:19.039Z,48.90
2018-02-15T20:14:47.006Z,45.97
2018-02-15T20:17:14.582Z,49.43
2018-02-15T20:19:42.417Z,52.73
2018-02-15T20:22:11.251Z,50.37
2018-02-15T20:24:39.145Z,51.87
2018-02-15T20:27:13.249Z,49.03
2018-02-15T20:29:41.944Z,51.73
2018-02-15T20:32:10.515Z,48.93
2018-02-15T20:34:38.974Z,50.30
2018-02-15T20:37:06.848Z,57.10
2018-02-15T20:39:40.114Z,52.53
2018-02-15T20:42:08.680Z,50.60
2018-02-15T20:44:37.381Z,53.83
2018-02-15T20:47:04.903Z,46.70
2018-02-15T20:49:38.028Z,53.97
2018-02-15T20:52:11.488Z,55.00
2018-02-15T20:54:56.232Z,53.40
2018-02-15T20:57:23.835Z,50.40
2018-02-15T20:59:51.622Z,49.73
2018-02-15T21:02:19.232Z,54.73
2018-02-15T21:04:46.801Z,52.27
2018-02-15T21:07:14.959Z,50.33
2018-02-15T21:09:44.328Z,52.13
2018-02-15T21:12:12.360Z,49.47
2018-02-15T21:14:40.012Z,48.27
2018-02-15T21:17:08.150Z,49.87
2018-02-15T21:19:38.052Z,48.90
2018-02-15T21:22:05.639Z,47.73
2018-02-15T21:24:33.271Z,50.00
2018-02-15T21:27:00.833Z,49.13
2018-02-15T21:29:28.351Z,44.47
2018-02-15T21:31:55.914Z,49.60
2018-02-15T21:34:23.443Z,48.90
2018-02-15T21:36:51.415Z,49.00
2018-02-15T21:39:19.346Z,48.33
2018-02-15T21:41:46.951Z,53.33
2018-02-15T21:44:14.546Z,49.33
2018-02-15T21:46:42.070Z,51.83
2018-02-15T21:49:09.696Z,53.53
2018-02-15T21:51:38.116Z,49.43
2018-02-15T21:54:05.613Z,56.60
2018-02-15T22:33:48.562Z,47.83
2018-02-15T22:36:16.017Z,50.57
2018-02-15T22:38:43.992Z,50.43
2018-02-15T22:41:11.621Z,51.17
2018-02-15T22:43:41.287Z,54.80
2018-02-15T22:46:08.917Z,60.67
2018-02-15T22:48:36.536Z,61.37
2018-02-15T22:51:10.778Z,58.67
2018-02-15T22:53:38.399Z,62.07
2018-02-15T22:56:11.133Z,54.40
2018-02-15T22:58:39.906Z,61.83
2018-02-15T23:01:08.362Z,63.63
2018-02-15T23:03:35.835Z,62.03
2018-02-15T23:06:05.484Z,55.17
2018-02-15T23:08:33.647Z,56.37
2018-02-15T23:11:05.352Z,55.37
2018-02-15T23:13:40.348Z,62.57
2018-02-15T23:16:07.929Z,51.10
2018-02-15T23:18:37.582Z,54.50
2018-02-15T23:21:09.663Z,52.83
2018-02-15T23:23:40.223Z,53.40
2018-02-15T23:26:12.184Z,56.00
2018-02-15T23:28:46.876Z,55.17
2018-02-15T23:31:17.555Z,54.93
2018-02-15T23:33:48.486Z,51.17
2018-02-15T23:36:21.457Z,48.17
2018-02-15T23:38:50.688Z,50.73
2018-02-15T23:41:19.621Z,48.73
2018-02-15T23:43:50.527Z,49.00
2018-02-15T23:46:23.568Z,47.33
2018-02-15T23:48:52.732Z,52.17
2018-02-15T23:51:21.332Z,49.47
2018-02-15T23:53:51.773Z,47.83
2018-02-15T23:56:23.180Z,50.07
2018-02-15T23:58:52.825Z,56.77
